Time;durP1;ratioP1;P1;durP2;ratioP2;P2;SDS_P1;SDS_P2;PMS_P1;PMS_P2;Temp;Humidity;BMP_temperature;BMP_pressure;BME280_temperature;BME280_humidity;BME280_pressure;Samples;Min_cycle;Max_cycle;Signal;HPM_P1;HPM_P2
2023/12/03 00:02:53;;;;;;;0.32;0.32;;;;;;;-1.25;77.89;101190.50;15728343;28;20040;-53
2023/12/03 00:10:27;;;;;;;1.27;1.25;;;;;;;-1.40;78.41;101191.69;15738869;28;20196;-53
2023/12/03 00:18:02;;;;;;;0.32;0.32;;;;;;;-1.91;79.67;101200.94;15747676;28;20036;-53
2023/12/03 00:25:36;;;;;;;0.13;0.13;;;;;;;-2.20;81.42;101199.69;15744683;28;20036;-53
2023/12/03 00:33:11;;;;;;;0.00;0.00;;;;;;;-1.77;79.29;101212.16;15725338;28;20120;-50
2023/12/03 00:40:44;;;;;;;0.08;0.08;;;;;;;-1.67;79.01;101215.78;15742352;28;20047;-51
2023/12/03 00:48:21;;;;;;;1.38;1.15;;;;;;;-1.97;80.31;101226.84;15733770;28;20411;-53
2023/12/03 00:55:55;;;;;;;0.00;0.00;;;;;;;-1.92;80.30;101243.13;15723828;28;20107;-52
2023/12/03 01:03:30;;;;;;;0.10;0.10;;;;;;;-1.73;80.25;101251.28;15718150;28;20033;-52
2023/12/03 01:11:05;;;;;;;0.22;0.22;;;;;;;-1.76;79.74;101238.38;15738209;28;20055;-52
2023/12/03 01:18:42;;;;;;;0.10;0.10;;;;;;;-1.63;79.91;101267.22;15737655;28;20051;-51
2023/12/03 01:26:19;;;;;;;0.30;0.30;;;;;;;-1.63;79.63;101269.84;15730983;28;20086;-53
2023/12/03 01:33:53;;;;;;;;;;;;;;;-1.38;78.14;101279.31;15726942;28;20051;-52
2023/12/03 01:41:26;;;;;;;1.20;1.10;;;;;;;-1.61;78.64;101279.28;15737668;28;19920;-51
2023/12/03 01:49:04;;;;;;;0.00;0.00;;;;;;;-1.52;77.65;101290.06;15735368;28;20045;-54
2023/12/03 01:56:38;;;;;;;0.00;0.00;;;;;;;-1.52;77.29;101296.19;15711954;28;20385;-55
2023/12/03 02:04:12;;;;;;;;;;;;;;;-1.65;78.40;101298.91;15734410;28;20044;-53
2023/12/03 02:11:46;;;;;;;0.00;0.00;;;;;;;-1.46;77.36;101310.66;15692608;28;19931;-54
2023/12/03 02:19:24;;;;;;;0.10;0.10;;;;;;;-1.44;77.55;101308.75;15693927;28;20059;-53
2023/12/03 02:27:01;;;;;;;0.10;0.10;;;;;;;-0.88;75.48;101314.00;15716239;28;20037;-55
2023/12/03 02:34:35;;;;;;;0.22;0.22;;;;;;;-0.98;76.14;101328.84;15728874;28;20051;-55
2023/12/03 02:42:09;;;;;;;;;;;;;;;-1.19;77.03;101328.75;15734181;28;20047;-55
2023/12/03 02:49:42;;;;;;;0.00;0.00;;;;;;;-1.14;76.93;101335.31;15696547;28;1152070;-52
2023/12/03 02:57:18;;;;;;;0.00;0.00;;;;;;;-1.41;77.85;101338.28;15718182;28;20037;-51
2023/12/03 03:04:51;;;;;;;0.20;0.20;;;;;;;-1.53;79.31;101339.25;15735555;28;20052;-53
2023/12/03 03:12:26;;;;;;;1.23;1.17;;;;;;;-0.91;77.00;101330.06;15703107;28;20049;-54
2023/12/03 03:20:00;;;;;;;0.05;0.05;;;;;;;-1.50;78.83;101340.81;15712157;28;20072;-54
2023/12/03 03:27:35;;;;;;;0.00;0.00;;;;;;;-1.68;79.79;101345.66;15714069;28;20032;-55
2023/12/03 03:35:09;;;;;;;0.00;0.00;;;;;;;-1.19;78.62;101350.66;15732593;28;20037;-53
2023/12/03 03:42:44;;;;;;;0.00;0.00;;;;;;;-1.24;79.42;101351.97;15734828;28;20392;-55
2023/12/03 03:50:17;;;;;;;1.33;0.82;;;;;;;-1.75;80.94;101299.72;15715345;28;20132;-53
2023/12/03 03:57:54;;;;;;;0.00;0.00;;;;;;;-1.44;80.19;101356.16;15733945;28;20048;-53
2023/12/03 04:05:29;;;;;;;0.10;0.10;;;;;;;-1.12;79.80;101362.41;15736808;28;20040;-54
2023/12/03 04:13:04;;;;;;;0.00;0.00;;;;;;;-1.04;79.99;101369.69;15725141;28;20036;-52
2023/12/03 04:20:38;;;;;;;0.00;0.00;;;;;;;-1.36;80.55;101364.28;15732133;28;20064;-52
2023/12/03 04:28:13;;;;;;;0.00;0.00;;;;;;;-1.30;80.95;101374.34;15743618;28;20060;-51
2023/12/03 04:35:46;;;;;;;0.10;0.10;;;;;;;-1.25;80.37;101372.22;15723098;28;20518;-53
2023/12/03 04:43:21;;;;;;;0.00;0.00;;;;;;;-1.16;80.70;101376.75;15735721;28;20045;-52
2023/12/03 04:50:55;;;;;;;0.00;0.00;;;;;;;-1.36;81.35;101380.91;15743634;28;20487;-53
2023/12/03 04:58:29;;;;;;;0.00;0.00;;;;;;;-1.42;81.42;101385.81;15744415;28;20116;-52
2023/12/03 05:06:03;;;;;;;0.20;0.20;;;;;;;-1.42;81.12;101393.72;15740944;28;20380;-51
2023/12/03 05:13:38;;;;;;;0.00;0.00;;;;;;;-1.71;81.36;101403.81;15739324;28;20064;-54
2023/12/03 05:21:11;;;;;;;0.57;0.57;;;;;;;-1.49;80.92;101406.53;15721919;28;20402;-49
2023/12/03 05:28:45;;;;;;;;;;;;;;;-1.60;80.79;101414.38;15731774;28;20040;-52
2023/12/03 05:36:23;;;;;;;0.30;0.30;;;;;;;-1.88;81.17;101416.41;15728590;28;19924;-52
2023/12/03 05:43:59;;;;;;;0.00;0.00;;;;;;;-1.48;80.24;101437.16;15754430;23;20044;-47
2023/12/03 05:51:32;;;;;;;0.00;0.00;;;;;;;-1.86;80.37;101440.00;15733020;28;20041;-50
2023/12/03 05:59:07;;;;;;;0.03;0.03;;;;;;;-1.58;80.04;101444.06;15680534;28;20157;-49
2023/12/03 06:06:42;;;;;;;0.00;0.00;;;;;;;-1.96;80.51;101457.38;15709182;28;20491;-49
2023/12/03 06:14:16;;;;;;;;;;;;;;;-1.79;80.12;101459.63;15689483;28;20037;-47
2023/12/03 06:21:49;;;;;;;0.00;0.00;;;;;;;-1.91;80.60;101464.00;15688833;28;19924;-47
2023/12/03 06:29:24;;;;;;;0.08;0.08;;;;;;;-1.41;79.15;101455.94;15683012;28;20076;-49
2023/12/03 06:36:59;;;;;;;0.32;0.32;;;;;;;-1.64;80.12;101458.50;15721916;28;20048;-51
2023/12/03 06:44:34;;;;;;;0.00;0.00;;;;;;;-1.44;78.59;101470.19;15700916;28;20037;-52
2023/12/03 06:52:08;;;;;;;2.35;1.40;;;;;;;-1.62;80.28;101500.53;15681294;28;20076;-48
2023/12/03 06:59:43;;;;;;;0.28;0.15;;;;;;;-1.69;80.30;101501.91;15687380;28;20131;-48
2023/12/03 07:07:17;;;;;;;0.00;0.00;;;;;;;-1.58;79.53;101507.25;15699816;28;20068;-48
2023/12/03 07:14:52;;;;;;;0.00;0.00;;;;;;;-1.75;79.82;101521.63;15705849;28;20415;-50
2023/12/03 07:22:25;;;;;;;0.05;0.05;;;;;;;-1.67;79.76;101523.72;15693391;28;20037;-50
2023/12/03 07:30:00;;;;;;;1.30;1.27;;;;;;;-1.32;78.75;101526.34;15699132;28;20047;-50
2023/12/03 07:37:36;;;;;;;0.20;0.20;;;;;;;-2.00;79.97;101542.75;15686495;28;20041;-48
2023/12/03 07:45:11;;;;;;;0.00;0.00;;;;;;;-1.87;79.71;101536.50;15717753;28;20128;-49
2023/12/03 07:52:44;;;;;;;0.10;0.10;;;;;;;-1.66;79.06;101549.91;15724468;28;20052;-50
2023/12/03 08:00:21;;;;;;;0.40;0.40;;;;;;;-1.64;79.11;101553.25;15688258;28;20285;-48
2023/12/03 08:07:57;;;;;;;0.00;0.00;;;;;;;-1.73;78.40;101559.19;15710847;28;20053;-48
2023/12/03 08:15:32;;;;;;;0.15;0.15;;;;;;;-1.62;78.71;101564.53;15713266;28;20518;-48
2023/12/03 08:23:05;;;;;;;0.00;0.00;;;;;;;-1.22;77.37;101566.03;15707482;28;20122;-52
2023/12/03 08:30:40;;;;;;;0.82;0.60;;;;;;;-1.37;77.67;101566.19;15713815;28;20040;-50
2023/12/03 08:38:14;;;;;;;0.43;0.43;;;;;;;-1.19;76.46;101573.72;15685272;28;20033;-50
2023/12/03 08:45:49;;;;;;;0.00;0.00;;;;;;;-1.37;76.52;101574.09;15698736;28;20417;-50
2023/12/03 08:53:24;;;;;;;0.80;0.45;;;;;;;-1.58;77.45;101594.94;15702045;28;20533;-48
2023/12/03 09:00:59;;;;;;;0.10;0.10;;;;;;;-1.85;77.44;101615.34;15707071;28;20159;-52
2023/12/03 09:08:33;;;;;;;0.13;0.13;;;;;;;-1.62;77.52;101613.69;15682212;28;20053;-49
2023/12/03 09:16:08;;;;;;;;;;;;;;;-1.60;77.82;101624.94;15699147;28;20041;-48
2023/12/03 09:23:43;;;;;;;0.45;0.45;;;;;;;-2.10;78.48;101627.59;15705217;28;19927;-51
2023/12/03 09:31:18;;;;;;;0.00;0.00;;;;;;;-1.70;77.41;101624.75;15700142;28;20063;-48
2023/12/03 09:38:51;;;;;;;0.80;0.77;;;;;;;-1.21;75.50;101625.63;15681926;28;20045;-49
2023/12/03 09:46:31;;;;;;;0.20;0.20;;;;;;;-1.10;74.36;101636.25;15703032;28;20098;-49
2023/12/03 09:54:07;;;;;;;0.08;0.08;;;;;;;-2.48;79.84;101631.97;15720462;28;20040;-51
2023/12/03 10:01:42;;;;;;;0.35;0.35;;;;;;;-1.19;77.25;101637.75;15695043;28;20575;-51
2023/12/03 10:09:16;;;;;;;0.00;0.00;;;;;;;-1.82;77.70;101644.03;15689211;28;20143;-48
2023/12/03 10:16:52;;;;;;;0.32;0.32;;;;;;;-1.58;77.01;101638.84;15688067;28;20079;-49
2023/12/03 10:24:25;;;;;;;0.10;0.10;;;;;;;-1.53;77.74;101642.00;15691997;28;20052;-49
2023/12/03 10:32:01;;;;;;;0.00;0.00;;;;;;;-1.65;76.38;101635.81;15692825;28;20060;-47
2023/12/03 10:39:38;;;;;;;0.15;0.15;;;;;;;-1.21;76.56;101641.44;15692040;28;20036;-50
2023/12/03 10:47:14;;;;;;;0.30;0.30;;;;;;;-1.73;76.85;101651.28;15681261;28;20094;-53
2023/12/03 10:54:47;;;;;;;0.00;0.00;;;;;;;-1.35;75.92;101645.13;15681258;28;20041;-49
2023/12/03 11:02:27;;;;;;;0.32;0.32;;;;;;;-1.78;76.72;101655.19;15697116;28;20037;-50
2023/12/03 11:10:02;;;;;;;0.00;0.00;;;;;;;-1.11;75.79;101658.28;15697660;28;20052;-49
2023/12/03 11:17:40;;;;;;;0.00;0.00;;;;;;;-1.48;76.66;101666.22;15698581;28;20434;-49
2023/12/03 11:25:16;;;;;;;0.15;0.15;;;;;;;-0.93;74.06;101661.34;15696121;28;20044;-49
2023/12/03 11:32:54;;;;;;;0.00;0.00;;;;;;;-1.00;74.06;101670.66;15703350;28;20053;-48
2023/12/03 11:40:33;;;;;;;0.00;0.00;;;;;;;-0.57;73.21;101676.22;15683963;28;20522;-48
2023/12/03 11:48:09;;;;;;;0.75;0.75;;;;;;;-0.88;73.10;101685.59;15733605;22;20052;-51
2023/12/03 11:55:45;;;;;;;0.00;0.00;;;;;;;-1.05;74.83;101692.09;15726688;28;20106;-53
2023/12/03 12:03:20;;;;;;;0.00;0.00;;;;;;;-1.37;74.96;101697.03;15732214;28;20159;-53
2023/12/03 12:10:53;;;;;;;0.00;0.00;;;;;;;-1.11;74.37;101703.91;15707223;28;20048;-52
2023/12/03 12:18:29;;;;;;;0.00;0.00;;;;;;;-0.92;73.89;101702.56;15733201;28;20040;-56
2023/12/03 12:26:03;;;;;;;0.00;0.00;;;;;;;-0.62;72.81;101700.31;15723157;28;20064;-52
2023/12/03 12:33:42;;;;;;;0.17;0.17;;;;;;;-0.36;72.30;101708.06;15740480;28;20111;-53
2023/12/03 12:41:15;;;;;;;0.10;0.10;;;;;;;-0.19;71.52;101710.25;15736752;28;20104;-51
2023/12/03 12:48:50;;;;;;;0.10;0.10;;;;;;;-0.45;71.11;101704.31;15738943;28;20126;-54
2023/12/03 12:56:25;;;;;;;0.52;0.52;;;;;;;-0.43;72.24;101712.13;15731196;28;20032;-53
2023/12/03 13:04:00;;;;;;;;;;;;;;;-1.08;73.72;101721.28;15737590;28;20047;-52
2023/12/03 13:11:33;;;;;;;0.00;0.00;;;;;;;-0.60;72.05;101721.31;15713068;28;20011;-52
2023/12/03 13:19:08;;;;;;;0.65;0.65;;;;;;;-1.21;73.08;101725.72;15737722;28;20120;-56
2023/12/03 13:26:41;;;;;;;0.00;0.00;;;;;;;-0.99;72.69;101717.13;15715099;28;20462;-55
2023/12/03 13:34:16;;;;;;;;;;;;;;;-0.46;72.53;101715.00;15721502;28;20052;-52
2023/12/03 13:41:50;;;;;;;0.10;0.10;;;;;;;-0.44;70.88;101711.28;15736936;28;19920;-48
2023/12/03 13:49:25;;;;;;;0.00;0.00;;;;;;;-0.48;71.28;101724.81;15736470;28;20041;-52
2023/12/03 13:56:58;;;;;;;0.00;0.00;;;;;;;-0.90;73.05;101727.84;15735872;28;20494;-53
2023/12/03 14:04:33;;;;;;;0.47;0.47;;;;;;;-0.71;72.57;101727.34;15734102;28;20132;-54
2023/12/03 14:12:07;;;;;;;0.00;0.00;;;;;;;-1.23;74.55;101723.22;15733525;28;20055;-52
2023/12/03 14:19:42;;;;;;;0.28;0.28;;;;;;;-0.61;73.13;101746.78;15731789;28;20275;-48
2023/12/03 14:27:15;;;;;;;0.20;0.20;;;;;;;-0.95;72.99;101752.84;15733951;28;20043;-53
2023/12/03 14:34:50;;;;;;;;;;;;;;;-0.37;71.28;101761.78;15734049;28;20036;-55
2023/12/03 14:42:23;;;;;;;0.25;0.25;;;;;;;-0.78;73.42;101774.41;15715922;28;20421;-53
2023/12/03 14:49:58;;;;;;;0.45;0.45;;;;;;;-1.36;73.60;101777.72;15713464;28;20143;-49
2023/12/03 14:57:31;;;;;;;0.00;0.00;;;;;;;-1.31;73.90;101784.38;15714514;28;20032;-52
2023/12/03 15:05:08;;;;;;;0.10;0.10;;;;;;;-0.99;72.24;101773.31;15732218;28;20045;-55
2023/12/03 15:12:43;;;;;;;0.00;0.00;;;;;;;-1.14;73.19;101785.78;15714497;28;20147;-51
2023/12/03 15:20:18;;;;;;;0.00;0.00;;;;;;;-0.90;73.10;101791.09;15732088;28;20577;-52
2023/12/03 15:27:51;;;;;;;3.30;1.00;;;;;;;-1.11;72.85;101797.91;15731658;28;20055;-52
2023/12/03 15:35:26;;;;;;;0.60;0.60;;;;;;;-0.37;70.92;101806.63;15713985;28;20052;-54
2023/12/03 15:43:00;;;;;;;0.00;0.00;;;;;;;-0.34;71.63;101807.22;15729956;28;20131;-52
2023/12/03 15:50:36;;;;;;;1.42;0.85;;;;;;;-1.33;74.41;101798.56;15731113;28;20044;-53
2023/12/03 15:58:10;;;;;;;0.15;0.15;;;;;;;-1.11;73.25;101808.44;15735571;28;20044;-49
2023/12/03 16:05:46;;;;;;;0.00;0.00;;;;;;;-1.29;73.03;101815.84;15741824;28;20040;-50
2023/12/03 16:13:19;;;;;;;0.10;0.10;;;;;;;-1.21;72.77;101815.28;15722847;28;20399;-54
2023/12/03 16:20:56;;;;;;;1.00;1.00;;;;;;;-1.46;72.87;101818.81;15739570;28;20041;-54
2023/12/03 16:28:30;;;;;;;0.10;0.10;;;;;;;-1.31;72.33;101812.47;15741232;28;20123;-52
2023/12/03 16:36:06;;;;;;;0.00;0.00;;;;;;;-1.30;72.94;101822.06;15740363;28;20051;-53
2023/12/03 16:43:40;;;;;;;0.32;0.32;;;;;;;-1.20;72.78;101824.91;15722907;28;20464;-51
2023/12/03 16:51:15;;;;;;;0.10;0.10;;;;;;;-1.29;73.14;101827.22;15739299;28;20041;-49
2023/12/03 16:58:50;;;;;;;1.20;1.13;;;;;;;-0.75;71.24;101825.22;15722743;28;20052;-52
2023/12/03 17:06:26;;;;;;;0.08;0.08;;;;;;;-1.07;71.61;101838.91;15722159;28;20131;-54
2023/12/03 17:13:59;;;;;;;0.38;0.38;;;;;;;-0.88;70.40;101828.75;15738044;28;20048;-51
2023/12/03 17:21:39;;;;;;;0.52;0.52;;;;;;;-1.22;72.34;101832.06;15740401;28;20427;-51
2023/12/03 17:29:13;;;;;;;0.10;0.10;;;;;;;-1.07;71.06;101823.09;15738796;28;20041;-55
2023/12/03 17:36:48;;;;;;;0.00;0.00;;;;;;;-1.30;70.31;101816.81;15739595;28;20108;-52
2023/12/03 17:44:22;;;;;;;0.00;0.00;;;;;;;-1.40;71.27;101826.28;15735104;23;20052;-52
2023/12/03 17:51:58;;;;;;;0.30;0.30;;;;;;;-1.49;71.37;101825.13;15697466;28;20059;-52
2023/12/03 17:59:32;;;;;;;0.10;0.10;;;;;;;-1.30;70.24;101832.59;15637859;28;20045;-49
2023/12/03 18:07:08;;;;;;;0.10;0.10;;;;;;;-1.93;71.68;101843.91;15621815;28;20104;-49
2023/12/03 18:14:42;;;;;;;0.00;0.00;;;;;;;-2.35;73.88;101854.53;15634715;28;20511;-52
2023/12/03 18:22:19;;;;;;;0.47;0.47;;;;;;;-2.07;72.09;101843.03;15601214;28;20076;-49
2023/12/03 18:29:53;;;;;;;0.10;0.10;;;;;;;-2.15;72.40;101853.22;15614198;28;20053;-54
2023/12/03 18:37:28;;;;;;;0.20;0.20;;;;;;;-2.17;71.90;101856.91;15618292;28;20042;-50
2023/12/03 18:45:03;;;;;;;0.20;0.20;;;;;;;-2.14;71.60;101851.47;15612342;28;20061;-50
2023/12/03 18:52:39;;;;;;;0.00;0.00;;;;;;;-2.47;71.88;101839.56;15571548;28;20523;-50
2023/12/03 19:00:16;;;;;;;1.13;1.13;;;;;;;-2.89;73.16;101846.59;15556365;28;20046;-49
2023/12/03 19:07:59;;;;;;;0.38;0.38;;;;;;;-2.62;73.10;101840.53;15542559;28;20100;-49
2023/12/03 19:15:33;;;;;;;0.43;0.43;;;;;;;-2.77;73.55;101829.22;15560782;28;20539;-49
2023/12/03 19:23:09;;;;;;;0.35;0.35;;;;;;;-2.80;73.43;101837.28;15562712;28;20145;-51
2023/12/03 19:30:43;;;;;;;0.15;0.15;;;;;;;-3.42;75.49;101848.09;15556703;28;20401;-51
2023/12/03 19:38:18;;;;;;;0.00;0.00;;;;;;;-3.31;76.00;101850.09;15567563;28;20387;-53
2023/12/03 19:45:54;;;;;;;0.00;0.00;;;;;;;-2.94;74.91;101847.81;15580776;28;20136;-51
2023/12/03 19:53:30;;;;;;;0.00;0.00;;;;;;;-2.93;73.39;101828.50;15624352;28;20273;-51
2023/12/03 20:01:04;;;;;;;0.50;0.50;;;;;;;-3.00;73.06;101809.63;15636914;28;20396;-53
2023/12/03 20:08:39;;;;;;;0.15;0.15;;;;;;;-3.49;76.06;101822.34;15632652;28;20452;-51
2023/12/03 20:16:13;;;;;;;0.10;0.10;;;;;;;-3.12;73.40;101832.28;15623753;28;20040;-50
2023/12/03 20:23:48;;;;;;;0.00;0.00;;;;;;;-3.28;73.37;101836.75;15606786;28;20045;-50
2023/12/03 20:31:24;;;;;;;0.13;0.13;;;;;;;-3.19;72.30;101841.44;15625167;28;20128;-51
2023/12/03 20:38:59;;;;;;;0.03;0.03;;;;;;;-3.31;73.42;101829.09;15625625;28;20076;-50
2023/12/03 20:46:32;;;;;;;0.00;0.00;;;;;;;-3.00;73.04;101808.78;15610548;28;20091;-51
2023/12/03 20:54:09;;;;;;;0.88;0.80;;;;;;;-3.28;73.57;101818.38;15554378;28;20412;-49
2023/12/03 21:01:42;;;;;;;0.25;0.25;;;;;;;-3.04;72.67;101816.00;15561761;28;20125;-49
2023/12/03 21:09:17;;;;;;;0.10;0.10;;;;;;;-2.99;72.99;101819.19;15566125;28;20050;-49
2023/12/03 21:16:51;;;;;;;0.00;0.00;;;;;;;-3.34;73.89;101819.63;15558740;28;20069;-51
2023/12/03 21:24:25;;;;;;;0.00;0.00;;;;;;;-3.56;76.63;101813.97;15548486;28;20046;-51
2023/12/03 21:31:59;;;;;;;1.38;1.08;;;;;;;-2.98;73.70;101794.66;15560210;28;20116;-50
2023/12/03 21:39:34;;;;;;;0.30;0.30;;;;;;;-3.33;74.16;101791.56;15557359;28;20050;-50
2023/12/03 21:47:07;;;;;;;0.08;0.08;;;;;;;-3.23;74.03;101782.19;15580581;28;20052;-50
2023/12/03 21:54:42;;;;;;;0.03;0.03;;;;;;;-3.10;72.31;101777.84;15618520;28;20432;-55
2023/12/03 22:02:15;;;;;;;0.15;0.15;;;;;;;-3.29;71.45;101771.22;15599858;28;20400;-50
2023/12/03 22:09:51;;;;;;;0.00;0.00;;;;;;;-3.47;71.15;101784.53;15617633;28;20061;-52
2023/12/03 22:17:25;;;;;;;0.88;0.80;;;;;;;-3.67;71.18;101775.28;15600224;28;20045;-50
2023/12/03 22:25:00;;;;;;;0.10;0.10;;;;;;;-3.75;70.97;101761.78;15615886;28;20053;-49
2023/12/03 22:32:33;;;;;;;0.10;0.10;;;;;;;-3.92;71.41;101761.94;15598508;28;20037;-50
2023/12/03 22:40:10;;;;;;;0.10;0.10;;;;;;;-4.15;71.68;101779.88;15610821;28;20046;-48
2023/12/03 22:47:43;;;;;;;0.00;0.00;;;;;;;-4.31;71.51;101776.44;15584186;28;20042;-48
2023/12/03 22:55:19;;;;;;;0.00;0.00;;;;;;;-4.30;71.46;101762.41;15554706;28;20073;-49
2023/12/03 23:02:52;;;;;;;0.03;0.03;;;;;;;-4.77;74.48;101773.81;15548488;28;20050;-48
2023/12/03 23:10:27;;;;;;;0.10;0.10;;;;;;;-4.33;73.09;101749.50;15546383;28;20045;-49
2023/12/03 23:18:00;;;;;;;0.00;0.00;;;;;;;-4.40;72.55;101749.00;15547929;28;20136;-49
2023/12/03 23:25:35;;;;;;;0.00;0.00;;;;;;;-4.54;71.22;101751.56;15530967;28;20038;-50
2023/12/03 23:33:08;;;;;;;1.85;1.08;;;;;;;-4.65;70.91;101749.56;15549019;28;20126;-50
2023/12/03 23:40:43;;;;;;;0.00;0.00;;;;;;;-4.84;70.54;101740.22;15531107;28;20050;-50
2023/12/03 23:48:16;;;;;;;0.17;0.17;;;;;;;-4.91;71.24;101727.47;15592627;22;20077;-47
2023/12/03 23:55:51;;;;;;;0.47;0.47;;;;;;;-4.92;71.84;101710.06;15617221;28;20101;-49
